FNT weather

Bishop International Airport
Flint, Michigan, United States

Public forecast

Using degrees Fahrenheit for public forecast. Weather courtesy of forecast.io.

METAR (pilot weather report)

Retrieved 2019/04/23 18:30 UTC (0 seconds ago):

KFNT 231830Z 27016G22KT 10SM OVC014 10/06 A2987

TAF (pilot weather forecast)

Retrieved 2019/04/23 18:30 UTC (0 seconds ago):

TAF KFNT 231728Z 2318/2418 28017G26KT P6SM BKN015 FM232000 29015G25KT P6SM BKN020 FM232200 30013G20KT P6SM SCT025 FM240100 31007KT P6SM SCT150 FM241200 32004KT P6SM SKC